Terminal Aerodrome Forecast
Issued by NWS

Home | Current Version | Previous Version | Graphics & Text | Print | Product List | Glossary On
Versions: 1 2 3 4 5 6 7 8 9 10 11 12 13 14 15 16 17 18 19 20 21 22 23 24 25 26 27 28 29 30 31 32
264
FTUS43 KLOT 181644 AAB
TAFORD
TAF AMD
KORD 181644Z 1817/1918 36016G27KT 3SM RA BR BKN009 OVC012
      TEMPO 1817/1819 2SM -RASN
     FM182000 34019G30KT 5SM -RA BKN015 OVC025
     FM182200 33018G28KT P6SM BKN025
     FM190600 32013G20KT P6SM SCT025
     FM191200 30012KT P6SM SCT150=

USA.gov is the U.S. government's official web portal to all federal, state and local government web resources and services.